Time;durP1;ratioP1;P1;durP2;ratioP2;P2;SDS_P1;SDS_P2;PMS_P1;PMS_P2;Temp;Humidity;BMP_temperature;BMP_pressure;BME280_temperature;BME280_humidity;BME280_pressure;Samples;Min_cycle;Max_cycle;Signal;HPM_P1;HPM_P2
2021/09/28 00:00:23;;;;;;;8.2;6;;;;;;;;;;;;;
2021/09/28 00:02:48;;;;;;;8.3;6.2;;;;;;;;;;;;;
2021/09/28 00:05:13;;;;;;;9.2;6;;;;;;;;;;;;;
2021/09/28 00:07:38;;;;;;;10;6.3;;;;;;;;;;;;;
2021/09/28 00:10:03;;;;;;;8.5;6;;;;;;;;;;;;;
2021/09/28 00:12:28;;;;;;;8.1;5.8;;;;;;;;;;;;;
2021/09/28 00:14:54;;;;;;;9.6;5.9;;;;;;;;;;;;;
2021/09/28 00:17:19;;;;;;;7.4;5.8;;;;;;;;;;;;;
2021/09/28 00:19:45;;;;;;;8.7;6.4;;;;;;;;;;;;;
2021/09/28 00:22:11;;;;;;;8.5;5.7;;;;;;;;;;;;;
2021/09/28 00:24:46;;;;;;;9;6.2;;;;;;;;;;;;;
2021/09/28 00:27:12;;;;;;;9.2;6;;;;;;;;;;;;;
2021/09/28 00:29:37;;;;;;;8.6;5.9;;;;;;;;;;;;;
2021/09/28 00:32:03;;;;;;;8.8;5.7;;;;;;;;;;;;;
2021/09/28 00:34:28;;;;;;;8.8;6.5;;;;;;;;;;;;;
2021/09/28 00:36:54;;;;;;;12.6;7.6;;;;;;;;;;;;;
2021/09/28 00:39:19;;;;;;;11;6.7;;;;;;;;;;;;;
2021/09/28 00:41:44;;;;;;;12.2;7.7;;;;;;;;;;;;;
2021/09/28 00:44:09;;;;;;;11.6;8;;;;;;;;;;;;;
2021/09/28 00:46:34;;;;;;;9.8;6.7;;;;;;;;;;;;;
2021/09/28 00:48:59;;;;;;;9.5;6.3;;;;;;;;;;;;;
2021/09/28 00:51:25;;;;;;;9;6.4;;;;;;;;;;;;;
2021/09/28 00:53:50;;;;;;;8.5;6.1;;;;;;;;;;;;;
2021/09/28 00:56:15;;;;;;;8.9;6.1;;;;;;;;;;;;;
2021/09/28 00:58:41;;;;;;;8.9;6.2;;;;;;;;;;;;;
2021/09/28 01:01:06;;;;;;;9.7;6.4;;;;;;;;;;;;;
2021/09/28 01:03:31;;;;;;;8.5;6.2;;;;;;;;;;;;;
2021/09/28 01:05:56;;;;;;;8.8;6.2;;;;;;;;;;;;;
2021/09/28 01:08:21;;;;;;;6.2;5;;;;;;;;;;;;;
2021/09/28 01:10:47;;;;;;;8.5;5.4;;;;;;;;;;;;;
2021/09/28 01:13:12;;;;;;;6.8;5.2;;;;;;;;;;;;;
2021/09/28 01:15:37;;;;;;;7.2;4.9;;;;;;;;;;;;;
2021/09/28 01:18:02;;;;;;;6.3;4.9;;;;;;;;;;;;;
2021/09/28 01:20:27;;;;;;;7.4;5;;;;;;;;;;;;;
2021/09/28 01:22:53;;;;;;;6.8;5.1;;;;;;;;;;;;;
2021/09/28 01:25:18;;;;;;;8.1;5.4;;;;;;;;;;;;;
2021/09/28 01:27:43;;;;;;;6.2;4.9;;;;;;;;;;;;;
2021/09/28 01:30:08;;;;;;;6.7;5.1;;;;;;;;;;;;;
2021/09/28 01:32:33;;;;;;;8.5;5.4;;;;;;;;;;;;;
2021/09/28 01:34:58;;;;;;;6.9;5;;;;;;;;;;;;;
2021/09/28 01:37:24;;;;;;;7;5.6;;;;;;;;;;;;;
2021/09/28 01:39:49;;;;;;;11.3;5.9;;;;;;;;;;;;;
2021/09/28 01:42:14;;;;;;;7.3;5.6;;;;;;;;;;;;;
2021/09/28 01:44:39;;;;;;;7.3;5.2;;;;;;;;;;;;;
2021/09/28 01:47:04;;;;;;;7;5.1;;;;;;;;;;;;;
2021/09/28 01:49:29;;;;;;;8;5.1;;;;;;;;;;;;;
2021/09/28 01:51:54;;;;;;;9.9;5.6;;;;;;;;;;;;;
2021/09/28 01:54:21;;;;;;;6.6;5;;;;;;;;;;;;;
2021/09/28 01:56:46;;;;;;;6.3;5.3;;;;;;;;;;;;;
2021/09/28 01:59:11;;;;;;;7.7;5.1;;;;;;;;;;;;;
2021/09/28 02:01:36;;;;;;;6.5;4.6;;;;;;;;;;;;;
2021/09/28 02:04:01;;;;;;;6.5;4.8;;;;;;;;;;;;;
2021/09/28 02:06:26;;;;;;;6.2;4.8;;;;;;;;;;;;;
2021/09/28 02:08:51;;;;;;;6.3;4.5;;;;;;;;;;;;;
2021/09/28 02:11:16;;;;;;;5;4.4;;;;;;;;;;;;;
2021/09/28 02:13:42;;;;;;;6.1;4.8;;;;;;;;;;;;;
2021/09/28 02:16:07;;;;;;;6.6;4.5;;;;;;;;;;;;;
2021/09/28 02:18:32;;;;;;;5.4;4.6;;;;;;;;;;;;;
2021/09/28 02:20:57;;;;;;;6;4.3;;;;;;;;;;;;;
2021/09/28 02:23:23;;;;;;;6.7;4.6;;;;;;;;;;;;;
2021/09/28 02:25:48;;;;;;;7.3;4.4;;;;;;;;;;;;;
2021/09/28 02:28:13;;;;;;;6;4.5;;;;;;;;;;;;;
2021/09/28 02:30:38;;;;;;;7;5;;;;;;;;;;;;;
2021/09/28 02:33:03;;;;;;;5.6;4.9;;;;;;;;;;;;;
2021/09/28 02:35:29;;;;;;;6.7;4.3;;;;;;;;;;;;;
2021/09/28 02:37:56;;;;;;;6.3;4.8;;;;;;;;;;;;;
2021/09/28 02:40:21;;;;;;;5.4;4.4;;;;;;;;;;;;;
2021/09/28 02:42:47;;;;;;;7.1;4.4;;;;;;;;;;;;;
2021/09/28 02:45:12;;;;;;;5.8;4.5;;;;;;;;;;;;;
2021/09/28 02:47:37;;;;;;;6;4.6;;;;;;;;;;;;;
2021/09/28 02:50:02;;;;;;;5.7;4.4;;;;;;;;;;;;;
2021/09/28 02:52:27;;;;;;;6.4;4.5;;;;;;;;;;;;;
2021/09/28 02:54:52;;;;;;;7.1;4.9;;;;;;;;;;;;;
2021/09/28 02:57:17;;;;;;;7;4.7;;;;;;;;;;;;;
2021/09/28 02:59:42;;;;;;;6.9;4.6;;;;;;;;;;;;;
2021/09/28 03:02:07;;;;;;;5.6;4.4;;;;;;;;;;;;;
2021/09/28 03:04:33;;;;;;;7.2;4.8;;;;;;;;;;;;;
2021/09/28 03:06:58;;;;;;;6.7;4.6;;;;;;;;;;;;;
2021/09/28 03:09:23;;;;;;;7;4.5;;;;;;;;;;;;;
2021/09/28 03:11:48;;;;;;;6.2;4.4;;;;;;;;;;;;;
2021/09/28 03:14:14;;;;;;;6.5;4.4;;;;;;;;;;;;;
2021/09/28 03:16:39;;;;;;;6.5;4.3;;;;;;;;;;;;;
2021/09/28 03:19:05;;;;;;;6.6;4.4;;;;;;;;;;;;;
2021/09/28 03:21:30;;;;;;;4.9;4.1;;;;;;;;;;;;;
2021/09/28 03:23:55;;;;;;;4.9;4.3;;;;;;;;;;;;;
2021/09/28 03:26:20;;;;;;;4.7;4;;;;;;;;;;;;;
2021/09/28 03:28:45;;;;;;;9.7;5;;;;;;;;;;;;;
2021/09/28 03:31:10;;;;;;;7.2;4.4;;;;;;;;;;;;;
2021/09/28 03:33:35;;;;;;;5.1;4;;;;;;;;;;;;;
2021/09/28 03:39:03;;;;;;;6.5;4.4;;;;;;;;;;;;;
2021/09/28 03:41:29;;;;;;;5.8;4;;;;;;;;;;;;;
2021/09/28 03:43:54;;;;;;;8.3;4.9;;;;;;;;;;;;;
2021/09/28 03:46:20;;;;;;;5.6;4.7;;;;;;;;;;;;;
2021/09/28 03:48:45;;;;;;;7;4.6;;;;;;;;;;;;;
2021/09/28 03:51:10;;;;;;;6;4.6;;;;;;;;;;;;;
2021/09/28 03:53:35;;;;;;;5.1;4.1;;;;;;;;;;;;;
2021/09/28 03:56:00;;;;;;;6.2;4.4;;;;;;;;;;;;;
2021/09/28 03:58:25;;;;;;;6.4;4.5;;;;;;;;;;;;;
2021/09/28 04:02:31;;;;;;;6.1;4.5;;;;;;;15.14;89.30176;943.5392;;;;
2021/09/28 04:04:56;;;;;;;5.5;4.3;;;;;;;15.14;89.45117;943.4389;;;;
2021/09/28 04:07:23;;;;;;;6.8;4.5;;;;;;;14.93;90.41211;943.4361;;;;
2021/09/28 04:09:48;;;;;;;6.8;4.5;;;;;;;14.88;90.68945;943.4794;;;;
2021/09/28 04:12:17;;;;;;;7.1;4.4;;;;;;;14.98;90.49316;943.4305;;;;
2021/09/28 04:14:45;;;;;;;6.7;4.6;;;;;;;15.01;89.72559;943.4554;;;;
2021/09/28 04:17:05;;;;;;;6.6;4.4;;;;;;;15.08;89.08301;943.4317;;;;
2021/09/28 04:19:32;;;;;;;7.1;4.6;;;;;;;15.02;89.09277;943.4717;;;;
2021/09/28 04:21:57;;;;;;;5.7;4.2;;;;;;;15.04;88.88867;943.4558;;;;
2021/09/28 04:24:23;;;;;;;5.1;4.3;;;;;;;15.07;88.74414;943.5608;;;;
2021/09/28 04:26:48;;;;;;;9.6;4.7;;;;;;;15.03;88.51758;943.5528;;;;
2021/09/28 04:29:15;;;;;;;5.1;4.2;;;;;;;14.93;89.09766;943.574;;;;
2021/09/28 04:31:40;;;;;;;6.4;4.4;;;;;;;14.93;89.59375;943.5966;;;;
2021/09/28 04:34:05;;;;;;;5.7;4.5;;;;;;;14.95;89.73535;943.627;;;;
2021/09/28 04:36:30;;;;;;;7.2;4.6;;;;;;;14.99;89.95117;943.6856;;;;
2021/09/28 04:38:56;;;;;;;7.3;4.4;;;;;;;15.04;89.78906;943.6514;;;;
2021/09/28 04:41:21;;;;;;;5.3;4.3;;;;;;;15.1;89.23633;943.686;;;;
2021/09/28 04:43:47;;;;;;;6.8;4.3;;;;;;;15.16;89.08789;943.6411;;;;
2021/09/28 04:46:11;;;;;;;6.6;4.7;;;;;;;15.18;89.56445;943.6306;;;;
2021/09/28 04:48:37;;;;;;;7.8;4.4;;;;;;;15.2;89.22168;943.5865;;;;
2021/09/28 04:51:02;;;;;;;8.9;4.8;;;;;;;15.18;89.50684;943.666;;;;
2021/09/28 04:53:28;;;;;;;5.4;4.1;;;;;;;15.21;89.34082;943.6426;;;;
2021/09/28 04:55:55;;;;;;;5.3;4;;;;;;;15.2;89.25684;943.5865;;;;
2021/09/28 04:58:18;;;;;;;5.9;4.3;;;;;;;15.26;88.91016;943.5812;;;;
2021/09/28 05:00:44;;;;;;;5.5;4.2;;;;;;;15.26;88.33496;943.5836;;;;
2021/09/28 05:03:09;;;;;;;6.2;3.9;;;;;;;15.2;88.9082;943.6426;;;;
2021/09/28 05:05:35;;;;;;;6.1;4.4;;;;;;;15.2;88.57422;943.6227;;;;
2021/09/28 05:08:00;;;;;;;4.7;3.8;;;;;;;15.19;88.62012;943.6467;;;;
2021/09/28 05:10:27;;;;;;;6.3;4.5;;;;;;;15.19;88.74707;943.6756;;;;
2021/09/28 05:12:52;;;;;;;7;4.6;;;;;;;15.15;88.92285;943.6547;;;;
2021/09/28 05:15:19;;;;;;;8.5;4.9;;;;;;;15.1;89.5;943.6788;;;;
2021/09/28 05:17:44;;;;;;;7.2;4.8;;;;;;;15.09;89.63672;943.7558;;;;
2021/09/28 05:20:09;;;;;;;14.9;8;;;;;;;15.1;89.68652;943.7502;;;;
2021/09/28 05:22:34;;;;;;;7;5.2;;;;;;;15.25;89.26563;943.7522;;;;
2021/09/28 05:25:00;;;;;;;6.7;4;;;;;;;15.15;89.35156;943.6909;;;;
2021/09/28 05:27:26;;;;;;;8.8;4.7;;;;;;;15.18;89.02246;943.7358;;;;
2021/09/28 05:29:52;;;;;;;4.8;3.9;;;;;;;15.24;88.84863;943.7361;;;;
2021/09/28 05:32:17;;;;;;;5.3;4.2;;;;;;;15.24;88.9541;943.7875;;;;
2021/09/28 05:34:42;;;;;;;7.5;4.2;;;;;;;15.23;89.04297;943.8195;;;;
2021/09/28 05:37:07;;;;;;;5.9;4.5;;;;;;;15.21;88.54492;943.8144;;;;
2021/09/28 05:39:32;;;;;;;6.3;4.4;;;;;;;15.24;88.73535;943.8925;;;;
2021/09/28 05:41:58;;;;;;;7.6;4.3;;;;;;;15.25;88.38867;943.8748;;;;
2021/09/28 05:44:25;;;;;;;6.9;4.7;;;;;;;15.31;88.77051;943.8661;;;;
2021/09/28 05:46:50;;;;;;;5.6;4.2;;;;;;;15.24;88.21387;943.9615;;;;
2021/09/28 05:49:15;;;;;;;7.5;4.4;;;;;;;15.2;88.59863;944.031;;;;
2021/09/28 05:52:22;;;;;;;6.9;4;;;;;;;15.21;88.72949;944.1;;;;
2021/09/28 05:54:51;;;;;;;5.3;4.6;;;;;;;15.1;89.91699;944.1738;;;;
2021/09/28 05:57:15;;;;;;;6;4.3;;;;;;;15.14;90.22461;944.2211;;;;
2021/09/28 05:59:41;;;;;;;7.2;4.6;;;;;;;15.16;90.28613;944.27;;;;
2021/09/28 06:02:05;;;;;;;8.8;4.6;;;;;;;15.22;90.46094;944.2319;;;;
2021/09/28 06:04:32;;;;;;;8;4.7;;;;;;;15.32;90.07715;944.224;;;;
2021/09/28 06:06:58;;;;;;;8.8;4.8;;;;;;;15.35;90.04785;944.1758;;;;
2021/09/28 06:09:23;;;;;;;10.3;5.1;;;;;;;15.37;90.37695;944.2505;;;;
2021/09/28 06:11:49;;;;;;;8.3;4.6;;;;;;;15.46;89.71484;944.2886;;;;
2021/09/28 06:14:13;;;;;;;8.9;4.7;;;;;;;15.6;89.26855;944.2648;;;;
2021/09/28 06:16:38;;;;;;;7.9;4.5;;;;;;;15.62;89.56152;944.2852;;;;
2021/09/28 06:19:04;;;;;;;7.2;4.3;;;;;;;15.72;88.51855;944.2714;;;;
2021/09/28 06:21:29;;;;;;;6.4;4;;;;;;;15.79;88.16504;944.2939;;;;
2021/09/28 06:23:56;;;;;;;6.4;4.2;;;;;;;15.84;87.9082;944.2893;;;;
2021/09/28 06:26:22;;;;;;;7.2;4.8;;;;;;;15.86;87.46094;944.3247;;;;
2021/09/28 06:28:47;;;;;;;6.7;4.7;;;;;;;15.94;87.02441;944.3325;;;;
2021/09/28 06:31:12;;;;;;;6;4.5;;;;;;;15.95;86.80859;944.3574;;;;
2021/09/28 06:33:38;;;;;;;8;4.2;;;;;;;16.04;86.89453;944.3512;;;;
2021/09/28 06:36:03;;;;;;;7.4;4.6;;;;;;;16.04;86.02832;944.3849;;;;
2021/09/28 06:38:29;;;;;;;7.3;4.3;;;;;;;16.05;85.68359;944.3873;;;;
2021/09/28 06:40:54;;;;;;;6.3;4.4;;;;;;;16.04;86.45508;944.4684;;;;
2021/09/28 06:43:20;;;;;;;8.8;4.2;;;;;;;16.08;86.16309;944.4363;;;;
2021/09/28 06:45:45;;;;;;;7.9;4.7;;;;;;;16.08;86.21094;944.519;;;;
2021/09/28 06:48:10;;;;;;;8;4.8;;;;;;;16.12;86.59961;944.5229;;;;
2021/09/28 06:50:36;;;;;;;8.6;4.4;;;;;;;16.1;84.53809;944.4812;;;;
2021/09/28 06:53:01;;;;;;;11.3;4.8;;;;;;;16.04;84.7666;944.4684;;;;
2021/09/28 06:55:28;;;;;;;7;4.5;;;;;;;16.01;86.33398;944.4835;;;;
2021/09/28 06:57:54;;;;;;;9.9;4.4;;;;;;;16.14;85.80566;944.4698;;;;
2021/09/28 07:00:19;;;;;;;8.8;4.2;;;;;;;16.13;86.11621;944.4796;;;;
2021/09/28 07:02:44;;;;;;;8.8;4.4;;;;;;;16.18;85.29199;944.4722;;;;
2021/09/28 07:05:13;;;;;;;7.1;4.7;;;;;;;16.25;84.92578;944.4988;;;;
2021/09/28 07:07:35;;;;;;;10.3;6.2;;;;;;;16.13;84.99414;944.5004;;;;
2021/09/28 07:10:01;;;;;;;11;5.9;;;;;;;16.18;85.43066;944.5212;;;;
2021/09/28 07:14:51;;;;;;;6.8;4.1;;;;;;;16.18;84.46094;944.5533;;;;
2021/09/28 07:17:18;;;;;;;7.4;4.4;;;;;;;16.17;84.52637;944.4842;;;;
2021/09/28 07:19:43;;;;;;;5.8;4.2;;;;;;;16.19;84.31055;944.5911;;;;
2021/09/28 07:22:09;;;;;;;7.1;4.2;;;;;;;16.04;84.08594;944.5352;;;;
2021/09/28 07:24:35;;;;;;;8.7;4.5;;;;;;;16.08;84.6709;944.4989;;;;
2021/09/28 07:27:00;;;;;;;7.5;4.2;;;;;;;16.09;85.80664;944.5527;;;;
2021/09/28 07:29:25;;;;;;;4.8;3.7;;;;;;;16.13;86.04785;944.5414;;;;
2021/09/28 07:31:53;;;;;;;8.5;4.4;;;;;;;16.16;85.54297;944.5446;;;;
2021/09/28 07:34:18;;;;;;;7.9;4.4;;;;;;;16.13;85.70117;944.5815;;;;
2021/09/28 07:36:45;;;;;;;7.6;4.9;;;;;;;16.14;85.85156;944.5856;;;;
2021/09/28 07:39:10;;;;;;;7.8;5.5;;;;;;;16.19;85.45605;944.5605;;;;
2021/09/28 07:41:37;;;;;;;8.8;5.2;;;;;;;16.26;85.57422;944.5559;;;;
2021/09/28 07:44:02;;;;;;;7.1;5.1;;;;;;;16.16;86.67676;944.5678;;;;
2021/09/28 07:46:41;;;;;;;8.7;5.1;;;;;;;16.18;87.13281;944.5485;;;;
2021/09/28 07:49:07;;;;;;;9;5.2;;;;;;;16.23;86.9668;944.5608;;;;
2021/09/28 07:51:32;;;;;;;8.4;6.4;;;;;;;16.09;87.85449;944.5045;;;;
2021/09/28 07:53:58;;;;;;;9.8;6.8;;;;;;;16.22;87.9707;944.4089;;;;
2021/09/28 07:56:26;;;;;;;12.2;8.5;;;;;;;16.19;88.90234;944.4433;;;;
2021/09/28 07:58:49;;;;;;;13.2;8.6;;;;;;;16.26;89.125;944.4852;;;;
2021/09/28 08:01:16;;;;;;;11.8;8.4;;;;;;;16.17;90.29883;944.5374;;;;
2021/09/28 08:03:41;;;;;;;10.5;7.3;;;;;;;16.09;90.75781;944.4869;;;;
2021/09/28 08:06:07;;;;;;;10.3;6.9;;;;;;;16.14;90.88281;944.5751;;;;
2021/09/28 08:08:32;;;;;;;8.1;6;;;;;;;16.14;90.58203;944.608;;;;
2021/09/28 08:10:58;;;;;;;8.3;5.4;;;;;;;16.18;90.2793;944.6563;;;;
2021/09/28 08:13:23;;;;;;;6.8;4.5;;;;;;;16.09;90.22363;944.5873;;;;
2021/09/28 08:15:50;;;;;;;9.2;4.2;;;;;;;16.16;90.26172;944.6386;;;;
2021/09/28 08:18:14;;;;;;;4.8;3.9;;;;;;;16.16;90.55078;944.6819;;;;
2021/09/28 08:20:46;;;;;;;4.8;3.4;;;;;;;16.06;90.26465;944.6451;;;;
2021/09/28 08:23:13;;;;;;;4.6;3.3;;;;;;;15.93;91.15137;944.6394;;;;
2021/09/28 08:25:48;;;;;;;3.5;2.9;;;;;;;15.91;91.83008;944.6547;;;;
2021/09/28 08:30:37;;;;;;;3;2.7;;;;;;;16.09;91.12793;944.6202;;;;
2021/09/28 08:33:03;;;;;;;3.1;2.3;;;;;;;16.23;90.5293;944.5061;;;;
2021/09/28 08:35:29;;;;;;;3.6;2.2;;;;;;;16.38;89.62402;944.5861;;;;
2021/09/28 08:37:54;;;;;;;2.2;1.8;;;;;;;16;91.56934;944.5525;;;;
2021/09/28 08:40:20;;;;;;;2.4;1.7;;;;;;;16.08;90.89258;944.4965;;;;
2021/09/28 08:42:44;;;;;;;1.8;1.5;;;;;;;16.24;89.52637;944.5687;;;;
2021/09/28 08:45:11;;;;;;;2;1.5;;;;;;;16.01;90.98145;944.5558;;;;
2021/09/28 08:47:36;;;;;;;2;1.3;;;;;;;15.98;91.04785;944.5775;;;;
2021/09/28 08:50:03;;;;;;;1.4;1.3;;;;;;;16.18;89.53906;944.5525;;;;
2021/09/28 08:52:27;;;;;;;1.6;1.5;;;;;;;16.14;90.1543;944.5269;;;;
2021/09/28 08:54:52;;;;;;;2.1;1.6;;;;;;;16.28;89.56836;944.4883;;;;
2021/09/28 08:57:19;;;;;;;0.9;0.9;;;;;;;16.43;89.04492;944.4456;;;;
2021/09/28 08:59:49;;;;;;;1.2;1;;;;;;;16.43;87.73633;944.4062;;;;
2021/09/28 09:02:09;;;;;;;1;1;;;;;;;16.39;88.66699;944.3883;;;;
2021/09/28 09:04:34;;;;;;;1.1;1;;;;;;;16.65;87.48047;944.3398;;;;
2021/09/28 09:06:59;;;;;;;0.9;0.9;;;;;;;16.79;85.59668;944.4319;;;;
2021/09/28 09:09:24;;;;;;;0.8;0.8;;;;;;;16.74;86.05078;944.4064;;;;
2021/09/28 09:11:49;;;;;;;0.8;0.8;;;;;;;16.73;85.93164;944.3276;;;;
2021/09/28 09:14:17;;;;;;;0.8;0.8;;;;;;;16.67;85.70117;944.3038;;;;
2021/09/28 09:16:43;;;;;;;0.9;0.9;;;;;;;16.85;85.77148;944.2614;;;;
2021/09/28 09:19:11;;;;;;;0.7;0.7;;;;;;;16.91;85.28418;944.1926;;;;
2021/09/28 09:21:41;;;;;;;0.7;0.7;;;;;;;17.03;84.02051;944.1376;;;;
2021/09/28 09:24:06;;;;;;;0.8;0.8;;;;;;;17.17;83.63086;944.1819;;;;
2021/09/28 09:26:32;;;;;;;0.9;0.9;;;;;;;17.17;83.97852;944.1786;;;;
2021/09/28 09:28:57;;;;;;;1.2;1.1;;;;;;;17.19;83.50684;944.1294;;;;
2021/09/28 09:31:25;;;;;;;1.7;0.9;;;;;;;17.25;83.27441;944.1284;;;;
2021/09/28 09:33:47;;;;;;;1.1;0.8;;;;;;;17.07;84.01758;944.0657;;;;
2021/09/28 09:36:13;;;;;;;0.9;0.9;;;;;;;17.18;83.58594;944.0818;;;;
2021/09/28 09:38:38;;;;;;;0.8;0.8;;;;;;;17.28;83.04785;944.0574;;;;
2021/09/28 09:41:05;;;;;;;0.9;0.9;;;;;;;17.16;83.80078;944.0531;;;;
2021/09/28 09:43:30;;;;;;;0.8;0.8;;;;;;;17.16;82.91992;944.012;;;;
2021/09/28 09:45:55;;;;;;;1.9;0.8;;;;;;;17.15;82.79199;943.9461;;;;
2021/09/28 09:48:20;;;;;;;0.9;0.9;;;;;;;17.2;83.32227;943.9626;;;;
2021/09/28 09:50:53;;;;;;;1.1;1;;;;;;;17.01;84.5498;943.8864;;;;
2021/09/28 09:53:18;;;;;;;0.8;0.8;;;;;;;16.96;84.48145;943.8666;;;;
2021/09/28 09:55:45;;;;;;;1.7;0.9;;;;;;;16.79;84.70508;943.8343;;;;
2021/09/28 09:58:12;;;;;;;2.1;0.9;;;;;;;16.58;86.7002;943.7439;;;;
2021/09/28 10:00:37;;;;;;;0.8;0.8;;;;;;;16.83;85.50098;943.7676;;;;
2021/09/28 10:03:02;;;;;;;0.8;0.8;;;;;;;17.08;83.72949;943.739;;;;
2021/09/28 10:05:27;;;;;;;0.8;0.8;;;;;;;17.17;83.24805;943.7174;;;;
2021/09/28 10:07:52;;;;;;;1;1;;;;;;;17.21;83.01172;943.6866;;;;
2021/09/28 10:10:18;;;;;;;0.8;0.8;;;;;;;17.34;83.23242;943.6215;;;;
2021/09/28 10:12:43;;;;;;;1.2;0.6;;;;;;;17.63;81.81445;943.5728;;;;
2021/09/28 10:15:09;;;;;;;0.8;0.7;;;;;;;17.6;80.93945;943.576;;;;
2021/09/28 10:17:39;;;;;;;0.8;0.8;;;;;;;17.63;80.83984;943.4875;;;;
2021/09/28 10:20:02;;;;;;;0.6;0.6;;;;;;;17.74;80.67383;943.4561;;;;
2021/09/28 10:22:25;;;;;;;0.6;0.6;;;;;;;17.49;80.69922;943.4401;;;;
2021/09/28 10:24:50;;;;;;;0.9;0.6;;;;;;;17.63;80.66797;943.4158;;;;
2021/09/28 10:27:15;;;;;;;2.7;0.8;;;;;;;17.87;79.31543;943.3858;;;;
2021/09/28 10:29:40;;;;;;;0.8;0.7;;;;;;;17.72;79.26465;943.3089;;;;
2021/09/28 10:32:05;;;;;;;1.4;0.8;;;;;;;17.58;80.27344;943.3975;;;;
2021/09/28 10:34:30;;;;;;;0.9;0.8;;;;;;;17.83;79.36719;943.3274;;;;
2021/09/28 10:36:55;;;;;;;0.7;0.7;;;;;;;17.89;79.76172;943.351;;;;
2021/09/28 10:39:21;;;;;;;0.6;0.6;;;;;;;17.88;78.65723;943.339;;;;
2021/09/28 10:41:48;;;;;;;0.6;0.6;;;;;;;17.83;78.77539;943.2823;;;;
2021/09/28 10:44:11;;;;;;;0.6;0.6;;;;;;;17.79;80.46387;943.1809;;;;
2021/09/28 10:46:36;;;;;;;0.5;0.5;;;;;;;17.86;80.26758;943.1716;;;;
2021/09/28 10:49:01;;;;;;;1.2;0.8;;;;;;;17.96;80.77344;943.1809;;;;
2021/09/28 10:51:26;;;;;;;0.9;0.7;;;;;;;17.57;82.88379;943.1889;;;;
2021/09/28 10:53:53;;;;;;;0.8;0.7;;;;;;;17.83;79.68066;943.2034;;;;
2021/09/28 10:56:16;;;;;;;0.6;0.6;;;;;;;17.84;79.13867;943.1573;;;;
2021/09/28 10:58:42;;;;;;;2.1;0.8;;;;;;;17.77;78.69434;943.1714;;;;
2021/09/28 11:01:08;;;;;;;0.9;0.7;;;;;;;18.16;79.6123;943.1242;;;;
2021/09/28 11:03:34;;;;;;;0.7;0.7;;;;;;;18.13;77.89941;943.1076;;;;
2021/09/28 11:06:00;;;;;;;0.5;0.5;;;;;;;18.16;77.56738;943.1;;;;
2021/09/28 11:08:25;;;;;;;0.8;0.4;;;;;;;18.52;75.70215;943.0887;;;;
2021/09/28 11:10:50;;;;;;;1.5;0.9;;;;;;;18.46;74.57324;942.9767;;;;
2021/09/28 11:13:15;;;;;;;0.9;0.7;;;;;;;18.59;75.45703;943.0167;;;;
2021/09/28 11:15:40;;;;;;;1.1;0.8;;;;;;;18.51;77.08301;943.0066;;;;
2021/09/28 11:18:05;;;;;;;1.2;0.8;;;;;;;18.39;75.4707;943.0208;;;;
2021/09/28 11:20:32;;;;;;;1.2;0.6;;;;;;;18.57;74.79102;942.9928;;;;
2021/09/28 11:22:57;;;;;;;1.2;0.9;;;;;;;18.76;74.83496;942.9543;;;;
2021/09/28 11:25:22;;;;;;;1.3;0.9;;;;;;;18.9;73.04395;942.897;;;;
2021/09/28 11:27:47;;;;;;;0.6;0.6;;;;;;;19.17;71.87598;942.868;;;;
2021/09/28 11:30:14;;;;;;;0.6;0.6;;;;;;;19.03;72.0752;942.8428;;;;
2021/09/28 11:32:38;;;;;;;0.6;0.6;;;;;;;18.64;73.4541;942.8247;;;;
2021/09/28 11:35:04;;;;;;;0.8;0.7;;;;;;;18.62;73.45117;942.8191;;;;
2021/09/28 11:37:30;;;;;;;0.7;0.7;;;;;;;18.73;73.17773;942.7935;;;;
2021/09/28 11:39:55;;;;;;;1.8;0.9;;;;;;;18.83;72.64746;942.6561;;;;
2021/09/28 11:42:20;;;;;;;1.2;0.9;;;;;;;18.73;72.92188;942.6596;;;;
2021/09/28 11:44:45;;;;;;;3.8;1.1;;;;;;;18.73;73.86426;942.6355;;;;
2021/09/28 11:47:10;;;;;;;2.3;0.8;;;;;;;18.93;72.78027;942.5415;;;;
2021/09/28 11:49:35;;;;;;;1.1;0.9;;;;;;;18.93;71.69824;942.5366;;;;
2021/09/28 11:52:03;;;;;;;1.2;0.8;;;;;;;18.78;71.89453;942.5136;;;;
2021/09/28 11:54:41;;;;;;;1.4;0.8;;;;;;;18.83;73.08984;942.4881;;;;
2021/09/28 11:56:59;;;;;;;1.5;0.9;;;;;;;18.99;71.74121;942.4347;;;;
2021/09/28 11:59:17;;;;;;;2.3;1;;;;;;;18.98;71.95117;942.3985;;;;
2021/09/28 12:01:43;;;;;;;1.1;0.8;;;;;;;19.17;71.74805;942.3247;;;;
2021/09/28 12:04:20;;;;;;;1.2;1;;;;;;;19.32;70.60742;942.3483;;;;
2021/09/28 12:06:58;;;;;;;0.8;0.8;;;;;;;19.15;70.74316;942.233;;;;
2021/09/28 12:09:03;;;;;;;1.8;0.9;;;;;;;19.37;69.8125;942.2399;;;;
2021/09/28 12:11:33;;;;;;;1.2;0.9;;;;;;;19.53;69.44238;942.2025;;;;
2021/09/28 12:13:55;;;;;;;1.1;0.8;;;;;;;19.45;69.87012;942.2088;;;;
2021/09/28 12:16:22;;;;;;;0.9;0.8;;;;;;;19.67;69.17285;942.1834;;;;
2021/09/28 12:18:45;;;;;;;1.2;0.8;;;;;;;19.71;69.57422;942.1334;;;;
2021/09/28 12:21:10;;;;;;;1;0.7;;;;;;;20.03;68.06152;942.0637;;;;
2021/09/28 12:23:36;;;;;;;1.7;0.8;;;;;;;20.27;67.2334;942.079;;;;
2021/09/28 12:26:01;;;;;;;0.8;0.8;;;;;;;20.16;68.94434;942.0641;;;;
2021/09/28 12:28:26;;;;;;;1.2;0.8;;;;;;;20.39;67.7666;941.9664;;;;
2021/09/28 12:30:51;;;;;;;0.8;0.8;;;;;;;19.56;70.55176;941.9366;;;;
2021/09/28 12:33:16;;;;;;;0.7;0.7;;;;;;;19.97;69.75488;941.9758;;;;
2021/09/28 12:35:41;;;;;;;1.8;1.1;;;;;;;20;69.75977;941.9314;;;;
2021/09/28 12:38:07;;;;;;;0.7;0.7;;;;;;;19.58;71.10254;941.9152;;;;
2021/09/28 12:40:32;;;;;;;1.3;0.9;;;;;;;19.42;73.05859;941.815;;;;
2021/09/28 12:42:56;;;;;;;1.7;1;;;;;;;19.02;74.92578;941.8506;;;;
2021/09/28 12:45:22;;;;;;;1;0.8;;;;;;;19.38;72.62012;941.7907;;;;
2021/09/28 12:47:48;;;;;;;1;0.9;;;;;;;19.5;71.42871;941.8074;;;;
2021/09/28 12:50:12;;;;;;;1.7;1;;;;;;;19.33;72.05371;941.7723;;;;
2021/09/28 12:52:37;;;;;;;1.1;1;;;;;;;19.1;74.37891;941.764;;;;
2021/09/28 12:55:02;;;;;;;1.3;1;;;;;;;18.98;74.01172;941.6576;;;;
2021/09/28 12:57:27;;;;;;;1.8;0.8;;;;;;;18.67;75.94727;941.6522;;;;
2021/09/28 12:59:52;;;;;;;1.7;0.9;;;;;;;18.94;75.71484;941.6512;;;;
2021/09/28 13:02:17;;;;;;;1.5;1.2;;;;;;;19.17;73.7041;941.6206;;;;
2021/09/28 13:04:43;;;;;;;0.9;0.9;;;;;;;19.29;73.37598;941.6333;;;;
2021/09/28 13:07:09;;;;;;;0.9;0.9;;;;;;;19.15;73.89941;941.5637;;;;
2021/09/28 13:09:34;;;;;;;1;1;;;;;;;19.36;73.66797;941.6117;;;;
2021/09/28 13:11:59;;;;;;;1.4;1.3;;;;;;;19.21;73.85156;941.5449;;;;
2021/09/28 13:14:28;;;;;;;1.5;1.3;;;;;;;19.04;75.94141;941.5817;;;;
2021/09/28 13:16:51;;;;;;;1.4;1.3;;;;;;;19.32;74.18457;941.5327;;;;
2021/09/28 13:19:59;;;;;;;1.3;1.2;;;;;;;19.64;72.04688;941.4964;;;;
2021/09/28 13:22:27;;;;;;;1.4;1;;;;;;;19.7;71.12305;941.4548;;;;
2021/09/28 13:24:52;;;;;;;1.3;1.2;;;;;;;19.72;71.5459;941.4165;;;;
2021/09/28 13:27:17;;;;;;;1.4;1.3;;;;;;;19.62;72.84863;941.4384;;;;
2021/09/28 13:29:43;;;;;;;1.8;1.2;;;;;;;19.43;74.72656;941.3716;;;;
2021/09/28 13:32:08;;;;;;;1.2;1.1;;;;;;;19.48;73.38281;941.361;;;;
2021/09/28 13:34:33;;;;;;;1.1;1;;;;;;;19.44;73.11035;941.3641;;;;
2021/09/28 13:37:00;;;;;;;1.2;1.1;;;;;;;19.49;73.61719;941.3286;;;;
2021/09/28 13:39:25;;;;;;;1.4;1.3;;;;;;;19.58;73.56348;941.377;;;;
2021/09/28 13:41:50;;;;;;;1.3;1.2;;;;;;;19.67;71.85449;941.3108;;;;
2021/09/28 13:44:16;;;;;;;1.6;1.3;;;;;;;19.35;73.67578;941.3124;;;;
2021/09/28 13:46:41;;;;;;;1.7;1.1;;;;;;;19.27;74.23535;941.3195;;;;
2021/09/28 13:49:07;;;;;;;1.3;1.2;;;;;;;19.34;74.14063;941.2836;;;;
2021/09/28 13:51:31;;;;;;;2.4;1.6;;;;;;;19.13;75.03711;941.2799;;;;
2021/09/28 13:53:57;;;;;;;1.8;1.3;;;;;;;18.98;75.81445;941.2808;;;;
2021/09/28 13:56:22;;;;;;;1.2;1.1;;;;;;;18.95;75.1582;941.241;;;;
2021/09/28 13:58:48;;;;;;;1.6;1.2;;;;;;;18.98;75.33887;941.2508;;;;
2021/09/28 14:01:13;;;;;;;2;1.3;;;;;;;19.02;75.87891;941.23;;;;
2021/09/28 14:03:39;;;;;;;2.3;1.8;;;;;;;18.92;75.44238;941.2642;;;;
2021/09/28 14:06:04;;;;;;;1.7;1.6;;;;;;;18.79;76.1543;941.2742;;;;
2021/09/28 14:08:29;;;;;;;1.6;1.5;;;;;;;18.72;76.75781;941.2722;;;;
2021/09/28 14:10:54;;;;;;;1.9;1.7;;;;;;;18.54;77.75;941.198;;;;
2021/09/28 14:13:20;;;;;;;2.6;1.6;;;;;;;18.41;78.53027;941.2151;;;;
2021/09/28 14:15:45;;;;;;;2.2;1.7;;;;;;;18.6;78.01758;941.2502;;;;
2021/09/28 14:18:10;;;;;;;2.1;1.9;;;;;;;18.71;76.84961;941.2183;;;;
2021/09/28 14:20:35;;;;;;;2.8;2.1;;;;;;;18.74;76.1582;941.1355;;;;
2021/09/28 14:23:01;;;;;;;3.1;1.8;;;;;;;18.74;76.14648;941.1258;;;;
2021/09/28 14:25:26;;;;;;;2.4;2.1;;;;;;;18.73;76.62012;941.0873;;;;
2021/09/28 14:27:53;;;;;;;2.2;2;;;;;;;18.75;76.38086;941.0053;;;;
2021/09/28 14:30:18;;;;;;;2.5;2.2;;;;;;;18.74;76.44922;941.0232;;;;
2021/09/28 14:32:44;;;;;;;3;2;;;;;;;18.54;76.98242;940.9963;;;;
2021/09/28 14:35:09;;;;;;;2.4;2.2;;;;;;;18.41;77.20508;940.9473;;;;
2021/09/28 14:37:36;;;;;;;2.8;2.1;;;;;;;18.44;77.04785;940.9447;;;;
2021/09/28 14:40:00;;;;;;;2;1.8;;;;;;;18.13;78.58496;940.941;;;;
2021/09/28 14:42:26;;;;;;;2.1;1.9;;;;;;;18.27;78.2041;940.8923;;;;
2021/09/28 14:44:53;;;;;;;2.1;1.9;;;;;;;18.18;78.45313;940.8774;;;;
2021/09/28 14:47:17;;;;;;;3.3;2.1;;;;;;;18.2;78.44629;940.8392;;;;
2021/09/28 14:49:42;;;;;;;2;1.8;;;;;;;18.23;78.27734;940.7971;;;;
2021/09/28 14:52:07;;;;;;;3.5;1.9;;;;;;;18.2;78.35352;940.8431;;;;
2021/09/28 14:54:33;;;;;;;1.9;1.7;;;;;;;18.14;78.33203;940.8658;;;;
2021/09/28 15:00:04;;;;;;;3.8;2;;;;;;;17.94;79.5957;940.7792;;;;
2021/09/28 15:02:29;;;;;;;2.6;1.9;;;;;;;18.02;79.38965;940.803;;;;
2021/09/28 15:04:54;;;;;;;3.2;2.1;;;;;;;18.01;79.23535;940.8;;;;
2021/09/28 15:07:19;;;;;;;3.6;1.8;;;;;;;18.07;79.27148;940.7388;;;;
2021/09/28 15:09:44;;;;;;;2.1;1.9;;;;;;;18.05;78.80273;940.6788;;;;
2021/09/28 15:12:10;;;;;;;3;1.9;;;;;;;18.03;79.20605;940.6403;;;;
2021/09/28 15:14:36;;;;;;;2;1.8;;;;;;;18.08;78.95801;940.5662;;;;
2021/09/28 15:17:01;;;;;;;2.8;2.2;;;;;;;18.04;79.53418;940.6361;;;;
2021/09/28 15:19:27;;;;;;;4.6;2;;;;;;;18.13;78.81738;940.551;;;;
2021/09/28 15:21:53;;;;;;;2.3;1.7;;;;;;;18.06;79.36133;940.5158;;;;
2021/09/28 15:24:19;;;;;;;1.8;1.5;;;;;;;18.11;78.94141;940.5376;;;;
2021/09/28 15:26:44;;;;;;;1.9;1.7;;;;;;;18.1;78.97461;940.5417;;;;
2021/09/28 15:29:10;;;;;;;3.1;2;;;;;;;18.02;79.50586;940.5848;;;;
2021/09/28 15:31:35;;;;;;;1.6;1.5;;;;;;;18.02;79.58691;940.5969;;;;
2021/09/28 15:34:00;;;;;;;2.4;1.7;;;;;;;17.97;79.8584;940.5853;;;;
2021/09/28 15:36:29;;;;;;;2.9;2;;;;;;;17.91;79.82324;940.5549;;;;
2021/09/28 15:38:52;;;;;;;2.9;1.9;;;;;;;17.87;80.51172;940.5128;;;;
2021/09/28 15:41:18;;;;;;;2.1;1.9;;;;;;;17.59;81.60938;940.5634;;;;